sensor_id;sensor_type;location;lat;lon;timestamp;temperature;humidity
62464;SHT31;48512;48.552;9.380;2023-07-29T00:02:10;17.63;91.52
62464;SHT31;48512;48.552;9.380;2023-07-29T00:04:36;17.65;91.54
62464;SHT31;48512;48.552;9.380;2023-07-29T00:07:02;17.63;91.74
62464;SHT31;48512;48.552;9.380;2023-07-29T00:09:28;17.70;91.42
62464;SHT31;48512;48.552;9.380;2023-07-29T00:11:54;17.80;91.04
62464;SHT31;48512;48.552;9.380;2023-07-29T00:14:20;17.79;91.05
62464;SHT31;48512;48.552;9.380;2023-07-29T00:16:46;17.83;91.18
62464;SHT31;48512;48.552;9.380;2023-07-29T00:19:13;17.80;91.18
62464;SHT31;48512;48.552;9.380;2023-07-29T00:21:39;17.77;91.69
62464;SHT31;48512;48.552;9.380;2023-07-29T00:24:06;17.74;91.94
62464;SHT31;48512;48.552;9.380;2023-07-29T00:26:33;17.77;91.65
62464;SHT31;48512;48.552;9.380;2023-07-29T00:29:00;17.84;91.71
62464;SHT31;48512;48.552;9.380;2023-07-29T00:31:27;17.81;91.77
62464;SHT31;48512;48.552;9.380;2023-07-29T00:33:53;17.89;91.25
62464;SHT31;48512;48.552;9.380;2023-07-29T00:36:20;17.84;91.59
62464;SHT31;48512;48.552;9.380;2023-07-29T00:38:46;17.91;91.90
62464;SHT31;48512;48.552;9.380;2023-07-29T00:41:22;17.89;91.69
62464;SHT31;48512;48.552;9.380;2023-07-29T00:43:48;17.93;91.12
62464;SHT31;48512;48.552;9.380;2023-07-29T00:46:14;18.02;90.82
62464;SHT31;48512;48.552;9.380;2023-07-29T00:48:42;18.10;90.61
62464;SHT31;48512;48.552;9.380;2023-07-29T00:51:08;18.05;90.85
62464;SHT31;48512;48.552;9.380;2023-07-29T00:53:34;18.10;90.44
62464;SHT31;48512;48.552;9.380;2023-07-29T00:56:00;18.10;90.78
62464;SHT31;48512;48.552;9.380;2023-07-29T00:58:27;18.05;90.79
62464;SHT31;48512;48.552;9.380;2023-07-29T01:00:53;18.14;90.35
62464;SHT31;48512;48.552;9.380;2023-07-29T01:03:20;18.17;90.00
62464;SHT31;48512;48.552;9.380;2023-07-29T01:12:01;18.32;89.54
62464;SHT31;48512;48.552;9.380;2023-07-29T01:16:56;18.15;90.24
62464;SHT31;48512;48.552;9.380;2023-07-29T01:22:13;18.27;90.06
62464;SHT31;48512;48.552;9.380;2023-07-29T01:24:39;18.14;90.74
62464;SHT31;48512;48.552;9.380;2023-07-29T01:27:05;18.12;90.89
62464;SHT31;48512;48.552;9.380;2023-07-29T01:29:31;18.14;90.62
62464;SHT31;48512;48.552;9.380;2023-07-29T01:32:11;18.14;90.53
62464;SHT31;48512;48.552;9.380;2023-07-29T01:34:45;18.17;90.50
62464;SHT31;48512;48.552;9.380;2023-07-29T01:37:16;18.20;90.15
62464;SHT31;48512;48.552;9.380;2023-07-29T01:39:45;18.21;90.18
62464;SHT31;48512;48.552;9.380;2023-07-29T01:42:13;18.22;90.08
62464;SHT31;48512;48.552;9.380;2023-07-29T01:44:39;18.24;89.94
62464;SHT31;48512;48.552;9.380;2023-07-29T01:47:08;18.25;89.92
62464;SHT31;48512;48.552;9.380;2023-07-29T01:49:34;18.21;90.51
62464;SHT31;48512;48.552;9.380;2023-07-29T01:52:00;18.32;90.05
62464;SHT31;48512;48.552;9.380;2023-07-29T01:54:27;18.39;89.65
62464;SHT31;48512;48.552;9.380;2023-07-29T01:56:53;18.34;89.62
62464;SHT31;48512;48.552;9.380;2023-07-29T01:59:19;18.39;89.45
62464;SHT31;48512;48.552;9.380;2023-07-29T02:01:45;18.28;89.93
62464;SHT31;48512;48.552;9.380;2023-07-29T02:04:12;18.22;90.32
62464;SHT31;48512;48.552;9.380;2023-07-29T02:06:38;18.28;90.21
62464;SHT31;48512;48.552;9.380;2023-07-29T02:09:04;18.15;90.44
62464;SHT31;48512;48.552;9.380;2023-07-29T02:11:30;18.24;90.14
62464;SHT31;48512;48.552;9.380;2023-07-29T02:13:57;18.12;90.34
62464;SHT31;48512;48.552;9.380;2023-07-29T02:16:23;18.10;90.69
62464;SHT31;48512;48.552;9.380;2023-07-29T02:18:49;18.08;90.53
62464;SHT31;48512;48.552;9.380;2023-07-29T02:21:16;18.08;90.35
62464;SHT31;48512;48.552;9.380;2023-07-29T02:23:43;18.08;89.94
62464;SHT31;48512;48.552;9.380;2023-07-29T02:26:09;18.11;90.15
62464;SHT31;48512;48.552;9.380;2023-07-29T02:28:35;18.12;89.79
62464;SHT31;48512;48.552;9.380;2023-07-29T02:31:20;18.11;89.88
62464;SHT31;48512;48.552;9.380;2023-07-29T02:33:46;18.11;89.83
62464;SHT31;48512;48.552;9.380;2023-07-29T02:36:13;18.17;89.60
62464;SHT31;48512;48.552;9.380;2023-07-29T02:38:40;18.11;89.52
62464;SHT31;48512;48.552;9.380;2023-07-29T02:41:08;18.18;89.26
62464;SHT31;48512;48.552;9.380;2023-07-29T02:43:36;18.20;89.10
62464;SHT31;48512;48.552;9.380;2023-07-29T02:46:02;18.24;89.04
62464;SHT31;48512;48.552;9.380;2023-07-29T02:48:28;18.18;89.71
62464;SHT31;48512;48.552;9.380;2023-07-29T02:50:55;18.22;89.30
62464;SHT31;48512;48.552;9.380;2023-07-29T02:53:22;18.17;89.33
62464;SHT31;48512;48.552;9.380;2023-07-29T02:55:49;18.25;88.87
62464;SHT31;48512;48.552;9.380;2023-07-29T02:58:15;18.29;88.81
62464;SHT31;48512;48.552;9.380;2023-07-29T03:00:41;18.31;88.90
62464;SHT31;48512;48.552;9.380;2023-07-29T03:03:08;18.22;88.85
62464;SHT31;48512;48.552;9.380;2023-07-29T03:05:35;18.24;88.86
62464;SHT31;48512;48.552;9.380;2023-07-29T03:08:01;18.25;88.97
62464;SHT31;48512;48.552;9.380;2023-07-29T03:10:27;18.25;89.12
62464;SHT31;48512;48.552;9.380;2023-07-29T03:12:54;18.32;88.59
62464;SHT31;48512;48.552;9.380;2023-07-29T03:15:23;18.38;88.28
62464;SHT31;48512;48.552;9.380;2023-07-29T03:17:51;18.34;88.84
62464;SHT31;48512;48.552;9.380;2023-07-29T03:20:19;18.27;89.15
62464;SHT31;48512;48.552;9.380;2023-07-29T03:22:46;18.22;89.10
62464;SHT31;48512;48.552;9.380;2023-07-29T03:25:13;18.31;88.72
62464;SHT31;48512;48.552;9.380;2023-07-29T03:27:39;18.37;88.74
62464;SHT31;48512;48.552;9.380;2023-07-29T03:30:08;18.35;88.56
62464;SHT31;48512;48.552;9.380;2023-07-29T03:32:34;18.37;88.50
62464;SHT31;48512;48.552;9.380;2023-07-29T03:35:00;18.38;88.14
62464;SHT31;48512;48.552;9.380;2023-07-29T03:37:26;18.46;88.15
62464;SHT31;48512;48.552;9.380;2023-07-29T03:39:53;18.45;87.93
62464;SHT31;48512;48.552;9.380;2023-07-29T03:42:19;18.41;88.11
62464;SHT31;48512;48.552;9.380;2023-07-29T03:44:45;18.41;88.37
62464;SHT31;48512;48.552;9.380;2023-07-29T03:47:11;18.41;88.09
62464;SHT31;48512;48.552;9.380;2023-07-29T03:49:39;18.46;88.19
62464;SHT31;48512;48.552;9.380;2023-07-29T03:52:06;18.41;88.64
62464;SHT31;48512;48.552;9.380;2023-07-29T03:54:32;18.41;88.26
62464;SHT31;48512;48.552;9.380;2023-07-29T03:56:58;18.41;88.52
62464;SHT31;48512;48.552;9.380;2023-07-29T03:59:25;18.32;88.83
62464;SHT31;48512;48.552;9.380;2023-07-29T04:01:51;18.35;88.47
62464;SHT31;48512;48.552;9.380;2023-07-29T04:04:17;18.35;88.63
62464;SHT31;48512;48.552;9.380;2023-07-29T04:06:43;18.37;88.50
62464;SHT31;48512;48.552;9.380;2023-07-29T04:09:09;18.38;88.73
62464;SHT31;48512;48.552;9.380;2023-07-29T04:11:35;18.44;88.65
62464;SHT31;48512;48.552;9.380;2023-07-29T04:14:01;18.49;87.97
62464;SHT31;48512;48.552;9.380;2023-07-29T04:16:27;18.48;88.14
62464;SHT31;48512;48.552;9.380;2023-07-29T04:18:54;18.55;87.80
62464;SHT31;48512;48.552;9.380;2023-07-29T04:21:21;18.56;88.37
62464;SHT31;48512;48.552;9.380;2023-07-29T04:23:47;18.42;89.57
62464;SHT31;48512;48.552;9.380;2023-07-29T04:26:13;18.38;89.61
62464;SHT31;48512;48.552;9.380;2023-07-29T04:28:39;18.39;89.55
62464;SHT31;48512;48.552;9.380;2023-07-29T04:31:05;18.49;89.19
62464;SHT31;48512;48.552;9.380;2023-07-29T04:33:32;18.53;89.10
62464;SHT31;48512;48.552;9.380;2023-07-29T04:35:58;18.41;89.77
62464;SHT31;48512;48.552;9.380;2023-07-29T04:38:30;18.42;89.84
62464;SHT31;48512;48.552;9.380;2023-07-29T04:40:56;18.52;89.16
62464;SHT31;48512;48.552;9.380;2023-07-29T04:43:22;18.53;89.12
62464;SHT31;48512;48.552;9.380;2023-07-29T04:45:48;18.52;89.54
62464;SHT31;48512;48.552;9.380;2023-07-29T04:48:14;18.59;88.98
62464;SHT31;48512;48.552;9.380;2023-07-29T04:50:40;18.59;89.50
62464;SHT31;48512;48.552;9.380;2023-07-29T04:53:07;18.58;89.61
62464;SHT31;48512;48.552;9.380;2023-07-29T04:55:33;18.70;89.06
62464;SHT31;48512;48.552;9.380;2023-07-29T04:57:59;18.80;88.24
62464;SHT31;48512;48.552;9.380;2023-07-29T05:00:26;18.82;88.42
62464;SHT31;48512;48.552;9.380;2023-07-29T05:02:52;18.94;88.42
62464;SHT31;48512;48.552;9.380;2023-07-29T05:05:18;19.03;87.26
62464;SHT31;48512;48.552;9.380;2023-07-29T05:07:44;19.15;86.34
62464;SHT31;48512;48.552;9.380;2023-07-29T05:10:11;19.14;87.29
62464;SHT31;48512;48.552;9.380;2023-07-29T05:12:37;19.17;87.07
62464;SHT31;48512;48.552;9.380;2023-07-29T05:15:03;19.21;86.70
62464;SHT31;48512;48.552;9.380;2023-07-29T05:17:31;19.24;86.69
62464;SHT31;48512;48.552;9.380;2023-07-29T05:19:58;19.31;87.52
62464;SHT31;48512;48.552;9.380;2023-07-29T05:22:24;19.04;87.94
62464;SHT31;48512;48.552;9.380;2023-07-29T05:24:51;18.86;88.63
62464;SHT31;48512;48.552;9.380;2023-07-29T05:27:17;18.56;89.38
62464;SHT31;48512;48.552;9.380;2023-07-29T05:29:43;18.38;91.09
62464;SHT31;48512;48.552;9.380;2023-07-29T05:32:09;18.21;92.57
62464;SHT31;48512;48.552;9.380;2023-07-29T05:34:35;18.27;92.28
62464;SHT31;48512;48.552;9.380;2023-07-29T05:37:01;18.15;93.21
62464;SHT31;48512;48.552;9.380;2023-07-29T05:39:29;18.31;93.34
62464;SHT31;48512;48.552;9.380;2023-07-29T05:41:55;18.21;92.92
62464;SHT31;48512;48.552;9.380;2023-07-29T05:44:22;18.04;93.98
62464;SHT31;48512;48.552;9.380;2023-07-29T05:46:48;18.05;94.12
62464;SHT31;48512;48.552;9.380;2023-07-29T05:49:14;18.04;94.50
62464;SHT31;48512;48.552;9.380;2023-07-29T05:51:41;18.11;93.97
62464;SHT31;48512;48.552;9.380;2023-07-29T05:54:07;18.22;93.73
62464;SHT31;48512;48.552;9.380;2023-07-29T05:56:33;18.28;93.40
62464;SHT31;48512;48.552;9.380;2023-07-29T05:58:59;18.38;93.86
62464;SHT31;48512;48.552;9.380;2023-07-29T06:01:25;18.41;94.01
62464;SHT31;48512;48.552;9.380;2023-07-29T06:03:52;18.46;94.43
62464;SHT31;48512;48.552;9.380;2023-07-29T06:06:18;18.59;94.49
62464;SHT31;48512;48.552;9.380;2023-07-29T06:08:44;18.62;94.86
62464;SHT31;48512;48.552;9.380;2023-07-29T06:11:10;18.83;94.27
62464;SHT31;48512;48.552;9.380;2023-07-29T06:13:36;18.90;94.67
62464;SHT31;48512;48.552;9.380;2023-07-29T06:16:02;19.07;93.89
62464;SHT31;48512;48.552;9.380;2023-07-29T06:18:29;19.11;94.17
62464;SHT31;48512;48.552;9.380;2023-07-29T06:20:55;19.23;93.46
62464;SHT31;48512;48.552;9.380;2023-07-29T06:23:21;19.32;93.61
62464;SHT31;48512;48.552;9.380;2023-07-29T06:25:47;19.35;92.87
62464;SHT31;48512;48.552;9.380;2023-07-29T06:28:13;19.50;92.23
62464;SHT31;48512;48.552;9.380;2023-07-29T06:30:39;19.62;89.81
62464;SHT31;48512;48.552;9.380;2023-07-29T06:33:06;19.65;90.18
62464;SHT31;48512;48.552;9.380;2023-07-29T06:35:32;19.69;89.25
62464;SHT31;48512;48.552;9.380;2023-07-29T06:37:58;19.80;87.55
62464;SHT31;48512;48.552;9.380;2023-07-29T06:40:24;19.83;88.14
62464;SHT31;48512;48.552;9.380;2023-07-29T06:42:50;19.87;89.38
62464;SHT31;48512;48.552;9.380;2023-07-29T06:45:17;19.92;88.99
62464;SHT31;48512;48.552;9.380;2023-07-29T06:47:44;20.06;89.60
62464;SHT31;48512;48.552;9.380;2023-07-29T06:50:11;20.09;87.64
62464;SHT31;48512;48.552;9.380;2023-07-29T06:52:37;20.21;87.63
62464;SHT31;48512;48.552;9.380;2023-07-29T06:55:04;20.31;87.26
62464;SHT31;48512;48.552;9.380;2023-07-29T06:57:30;20.45;86.35
62464;SHT31;48512;48.552;9.380;2023-07-29T06:59:56;20.51;85.08
62464;SHT31;48512;48.552;9.380;2023-07-29T07:02:22;20.48;85.72
62464;SHT31;48512;48.552;9.380;2023-07-29T07:04:48;20.44;85.51
62464;SHT31;48512;48.552;9.380;2023-07-29T07:07:15;20.49;85.13
62464;SHT31;48512;48.552;9.380;2023-07-29T07:09:41;20.57;84.82
62464;SHT31;48512;48.552;9.380;2023-07-29T07:12:07;20.51;83.70
62464;SHT31;48512;48.552;9.380;2023-07-29T07:14:34;20.48;84.87
62464;SHT31;48512;48.552;9.380;2023-07-29T07:17:00;20.43;84.90
62464;SHT31;48512;48.552;9.380;2023-07-29T07:19:26;20.37;87.31
62464;SHT31;48512;48.552;9.380;2023-07-29T07:21:52;20.17;89.21
62464;SHT31;48512;48.552;9.380;2023-07-29T07:24:18;19.93;89.81
62464;SHT31;48512;48.552;9.380;2023-07-29T07:26:44;19.76;90.82
62464;SHT31;48512;48.552;9.380;2023-07-29T07:29:10;19.71;89.47
62464;SHT31;48512;48.552;9.380;2023-07-29T07:31:36;19.66;89.67
62464;SHT31;48512;48.552;9.380;2023-07-29T07:34:02;19.65;90.01
62464;SHT31;48512;48.552;9.380;2023-07-29T07:36:29;19.68;89.28
62464;SHT31;48512;48.552;9.380;2023-07-29T07:38:56;19.73;88.92
62464;SHT31;48512;48.552;9.380;2023-07-29T07:41:23;19.63;89.95
62464;SHT31;48512;48.552;9.380;2023-07-29T07:43:49;19.57;91.09
62464;SHT31;48512;48.552;9.380;2023-07-29T07:46:15;19.63;90.70
62464;SHT31;48512;48.552;9.380;2023-07-29T07:48:42;19.78;89.57
62464;SHT31;48512;48.552;9.380;2023-07-29T07:51:11;19.65;88.71
62464;SHT31;48512;48.552;9.380;2023-07-29T07:53:38;19.69;88.92
62464;SHT31;48512;48.552;9.380;2023-07-29T07:56:04;19.79;89.12
62464;SHT31;48512;48.552;9.380;2023-07-29T07:58:30;19.72;89.16
62464;SHT31;48512;48.552;9.380;2023-07-29T08:01:03;19.71;89.09
62464;SHT31;48512;48.552;9.380;2023-07-29T08:03:30;19.75;88.27
62464;SHT31;48512;48.552;9.380;2023-07-29T08:05:56;19.72;90.39
62464;SHT31;48512;48.552;9.380;2023-07-29T08:08:23;19.76;90.04
62464;SHT31;48512;48.552;9.380;2023-07-29T08:10:49;19.68;88.89
62464;SHT31;48512;48.552;9.380;2023-07-29T08:13:15;19.69;89.93
62464;SHT31;48512;48.552;9.380;2023-07-29T08:15:41;19.80;88.71
62464;SHT31;48512;48.552;9.380;2023-07-29T08:18:07;20.01;88.91
62464;SHT31;48512;48.552;9.380;2023-07-29T08:20:33;19.94;86.88
62464;SHT31;48512;48.552;9.380;2023-07-29T08:22:59;20.21;84.88
62464;SHT31;48512;48.552;9.380;2023-07-29T08:25:25;20.03;87.27
62464;SHT31;48512;48.552;9.380;2023-07-29T08:27:51;19.99;88.46
62464;SHT31;48512;48.552;9.380;2023-07-29T08:30:17;20.05;86.28
62464;SHT31;48512;48.552;9.380;2023-07-29T08:32:45;20.13;86.47
62464;SHT31;48512;48.552;9.380;2023-07-29T08:35:11;20.13;86.44
62464;SHT31;48512;48.552;9.380;2023-07-29T08:37:37;20.12;88.02
62464;SHT31;48512;48.552;9.380;2023-07-29T08:40:03;20.19;87.71
62464;SHT31;48512;48.552;9.380;2023-07-29T08:42:31;20.27;86.86
62464;SHT31;48512;48.552;9.380;2023-07-29T08:45:07;20.41;87.88
62464;SHT31;48512;48.552;9.380;2023-07-29T08:47:34;20.52;85.25
62464;SHT31;48512;48.552;9.380;2023-07-29T08:50:01;20.41;87.56
62464;SHT31;48512;48.552;9.380;2023-07-29T08:52:29;20.43;87.98
62464;SHT31;48512;48.552;9.380;2023-07-29T08:54:56;20.44;86.01
62464;SHT31;48512;48.552;9.380;2023-07-29T08:57:23;20.40;85.39
62464;SHT31;48512;48.552;9.380;2023-07-29T08:59:49;20.28;87.65
62464;SHT31;48512;48.552;9.380;2023-07-29T09:02:15;20.27;87.62
62464;SHT31;48512;48.552;9.380;2023-07-29T09:04:42;20.44;85.40
62464;SHT31;48512;48.552;9.380;2023-07-29T09:07:09;20.65;84.79
62464;SHT31;48512;48.552;9.380;2023-07-29T09:09:35;20.65;85.92
62464;SHT31;48512;48.552;9.380;2023-07-29T09:12:01;20.78;87.39
62464;SHT31;48512;48.552;9.380;2023-07-29T09:14:28;20.79;87.04
62464;SHT31;48512;48.552;9.380;2023-07-29T09:16:54;21.10;86.37
62464;SHT31;48512;48.552;9.380;2023-07-29T09:19:20;21.31;85.89
62464;SHT31;48512;48.552;9.380;2023-07-29T09:21:46;21.27;84.95
62464;SHT31;48512;48.552;9.380;2023-07-29T09:24:15;21.43;89.15
62464;SHT31;48512;48.552;9.380;2023-07-29T09:26:51;21.78;90.03
62464;SHT31;48512;48.552;9.380;2023-07-29T09:29:23;21.82;84.78
62464;SHT31;48512;48.552;9.380;2023-07-29T09:31:50;22.06;87.96
62464;SHT31;48512;48.552;9.380;2023-07-29T09:34:16;22.15;84.12
62464;SHT31;48512;48.552;9.380;2023-07-29T09:36:43;22.40;85.51
62464;SHT31;48512;48.552;9.380;2023-07-29T09:39:12;22.61;82.73
62464;SHT31;48512;48.552;9.380;2023-07-29T09:41:38;22.81;85.82
62464;SHT31;48512;48.552;9.380;2023-07-29T09:44:06;23.01;84.28
62464;SHT31;48512;48.552;9.380;2023-07-29T09:46:36;23.07;83.70
62464;SHT31;48512;48.552;9.380;2023-07-29T09:49:04;23.11;83.83
62464;SHT31;48512;48.552;9.380;2023-07-29T09:51:32;23.39;81.92
62464;SHT31;48512;48.552;9.380;2023-07-29T09:54:02;23.57;82.89
62464;SHT31;48512;48.552;9.380;2023-07-29T09:56:28;23.73;81.10
62464;SHT31;48512;48.552;9.380;2023-07-29T09:58:55;23.74;80.96
62464;SHT31;48512;48.552;9.380;2023-07-29T10:01:25;24.01;79.11
62464;SHT31;48512;48.552;9.380;2023-07-29T10:03:51;24.45;78.68
62464;SHT31;48512;48.552;9.380;2023-07-29T10:06:18;24.53;77.08
62464;SHT31;48512;48.552;9.380;2023-07-29T10:08:45;24.52;76.79
62464;SHT31;48512;48.552;9.380;2023-07-29T10:11:11;24.84;75.17
62464;SHT31;48512;48.552;9.380;2023-07-29T10:13:38;24.76;76.65
62464;SHT31;48512;48.552;9.380;2023-07-29T10:16:04;24.79;73.91
62464;SHT31;48512;48.552;9.380;2023-07-29T10:18:31;24.65;71.87
62464;SHT31;48512;48.552;9.380;2023-07-29T10:20:59;24.62;74.04
62464;SHT31;48512;48.552;9.380;2023-07-29T10:23:27;24.70;73.97
62464;SHT31;48512;48.552;9.380;2023-07-29T10:26:07;25.24;72.11
62464;SHT31;48512;48.552;9.380;2023-07-29T10:28:38;24.96;70.79
62464;SHT31;48512;48.552;9.380;2023-07-29T10:31:05;25.24;74.08
62464;SHT31;48512;48.552;9.380;2023-07-29T10:33:33;25.33;71.60
62464;SHT31;48512;48.552;9.380;2023-07-29T10:35:59;25.23;70.86
62464;SHT31;48512;48.552;9.380;2023-07-29T10:38:27;25.74;70.05
62464;SHT31;48512;48.552;9.380;2023-07-29T10:40:55;25.61;71.90
62464;SHT31;48512;48.552;9.380;2023-07-29T10:43:27;25.64;69.17
62464;SHT31;48512;48.552;9.380;2023-07-29T10:45:57;25.47;69.19
62464;SHT31;48512;48.552;9.380;2023-07-29T10:51:35;26.22;63.88
62464;SHT31;48512;48.552;9.380;2023-07-29T10:56:36;26.78;65.29
62464;SHT31;48512;48.552;9.380;2023-07-29T10:59:22;26.95;64.02
62464;SHT31;48512;48.552;9.380;2023-07-29T11:01:58;27.23;63.81
62464;SHT31;48512;48.552;9.380;2023-07-29T11:04:28;27.08;63.29
62464;SHT31;48512;48.552;9.380;2023-07-29T11:17:43;27.19;60.65
62464;SHT31;48512;48.552;9.380;2023-07-29T11:20:11;27.49;59.19
62464;SHT31;48512;48.552;9.380;2023-07-29T11:22:38;27.87;59.54
62464;SHT31;48512;48.552;9.380;2023-07-29T11:25:05;28.42;57.20
62464;SHT31;48512;48.552;9.380;2023-07-29T11:27:35;28.59;56.81
62464;SHT31;48512;48.552;9.380;2023-07-29T11:30:04;27.76;57.58
62464;SHT31;48512;48.552;9.380;2023-07-29T11:32:35;27.36;57.99
62464;SHT31;48512;48.552;9.380;2023-07-29T11:35:13;27.47;58.78
62464;SHT31;48512;48.552;9.380;2023-07-29T11:37:42;27.68;57.91
62464;SHT31;48512;48.552;9.380;2023-07-29T11:40:08;27.53;59.09
62464;SHT31;48512;48.552;9.380;2023-07-29T11:42:37;27.98;56.71
62464;SHT31;48512;48.552;9.380;2023-07-29T11:45:05;28.43;54.75
62464;SHT31;48512;48.552;9.380;2023-07-29T11:47:32;27.94;55.86
62464;SHT31;48512;48.552;9.380;2023-07-29T11:50:07;28.16;57.52
62464;SHT31;48512;48.552;9.380;2023-07-29T11:52:36;27.91;58.65
62464;SHT31;48512;48.552;9.380;2023-07-29T11:55:04;27.97;57.60
62464;SHT31;48512;48.552;9.380;2023-07-29T11:57:31;27.95;58.05
62464;SHT31;48512;48.552;9.380;2023-07-29T11:59:59;28.53;56.91
62464;SHT31;48512;48.552;9.380;2023-07-29T12:02:37;29.07;54.83
62464;SHT31;48512;48.552;9.380;2023-07-29T12:05:04;28.61;55.87
62464;SHT31;48512;48.552;9.380;2023-07-29T12:07:31;28.53;55.28
62464;SHT31;48512;48.552;9.380;2023-07-29T12:09:59;28.60;55.28
62464;SHT31;48512;48.552;9.380;2023-07-29T12:12:25;28.06;55.52
62464;SHT31;48512;48.552;9.380;2023-07-29T12:14:54;28.35;56.87
62464;SHT31;48512;48.552;9.380;2023-07-29T12:17:20;29.01;54.40
62464;SHT31;48512;48.552;9.380;2023-07-29T12:19:46;29.53;53.14
62464;SHT31;48512;48.552;9.380;2023-07-29T12:22:18;29.25;52.37
62464;SHT31;48512;48.552;9.380;2023-07-29T12:24:44;29.73;48.98
62464;SHT31;48512;48.552;9.380;2023-07-29T12:27:12;29.81;51.70
62464;SHT31;48512;48.552;9.380;2023-07-29T12:29:42;29.58;50.67
62464;SHT31;48512;48.552;9.380;2023-07-29T12:32:09;29.34;51.93
62464;SHT31;48512;48.552;9.380;2023-07-29T12:34:37;28.97;51.94
62464;SHT31;48512;48.552;9.380;2023-07-29T12:37:06;29.34;53.58
62464;SHT31;48512;48.552;9.380;2023-07-29T12:39:33;29.81;51.08
62464;SHT31;48512;48.552;9.380;2023-07-29T12:42:01;29.34;52.48
62464;SHT31;48512;48.552;9.380;2023-07-29T12:44:33;29.00;52.78
62464;SHT31;48512;48.552;9.380;2023-07-29T12:47:01;28.53;53.19
62464;SHT31;48512;48.552;9.380;2023-07-29T12:49:31;28.25;54.46
62464;SHT31;48512;48.552;9.380;2023-07-29T12:51:57;28.55;54.00
62464;SHT31;48512;48.552;9.380;2023-07-29T12:54:23;28.66;54.03
62464;SHT31;48512;48.552;9.380;2023-07-29T12:56:50;28.64;53.48
62464;SHT31;48512;48.552;9.380;2023-07-29T12:59:16;28.40;54.46
62464;SHT31;48512;48.552;9.380;2023-07-29T13:01:43;28.32;54.96
62464;SHT31;48512;48.552;9.380;2023-07-29T13:04:12;28.57;54.35
62464;SHT31;48512;48.552;9.380;2023-07-29T13:06:38;29.10;53.35
62464;SHT31;48512;48.552;9.380;2023-07-29T13:09:04;29.12;54.21
62464;SHT31;48512;48.552;9.380;2023-07-29T13:11:31;29.42;53.37
62464;SHT31;48512;48.552;9.380;2023-07-29T13:14:00;29.62;52.33
62464;SHT31;48512;48.552;9.380;2023-07-29T13:16:30;29.42;53.09
62464;SHT31;48512;48.552;9.380;2023-07-29T13:18:56;29.03;54.24
62464;SHT31;48512;48.552;9.380;2023-07-29T13:21:26;28.90;53.56
62464;SHT31;48512;48.552;9.380;2023-07-29T13:23:52;28.93;54.87
62464;SHT31;48512;48.552;9.380;2023-07-29T13:26:18;28.64;54.63
62464;SHT31;48512;48.552;9.380;2023-07-29T13:28:44;28.87;54.73
62464;SHT31;48512;48.552;9.380;2023-07-29T13:31:10;29.11;54.54
62464;SHT31;48512;48.552;9.380;2023-07-29T13:33:37;29.10;55.96
62464;SHT31;48512;48.552;9.380;2023-07-29T13:36:03;29.28;53.89
62464;SHT31;48512;48.552;9.380;2023-07-29T13:38:29;28.78;54.52
62464;SHT31;48512;48.552;9.380;2023-07-29T13:40:55;28.76;53.81
62464;SHT31;48512;48.552;9.380;2023-07-29T13:43:22;29.32;52.92
62464;SHT31;48512;48.552;9.380;2023-07-29T13:45:48;28.61;53.74
62464;SHT31;48512;48.552;9.380;2023-07-29T13:48:15;28.64;54.88
62464;SHT31;48512;48.552;9.380;2023-07-29T13:50:42;28.50;54.36
62464;SHT31;48512;48.552;9.380;2023-07-29T13:53:09;28.74;55.55
62464;SHT31;48512;48.552;9.380;2023-07-29T13:55:36;28.88;54.94
62464;SHT31;48512;48.552;9.380;2023-07-29T13:58:02;28.87;53.62
62464;SHT31;48512;48.552;9.380;2023-07-29T14:00:28;28.60;54.24
62464;SHT31;48512;48.552;9.380;2023-07-29T14:02:54;28.81;54.55
62464;SHT31;48512;48.552;9.380;2023-07-29T14:05:20;28.59;54.26
62464;SHT31;48512;48.552;9.380;2023-07-29T14:07:47;28.87;54.81
62464;SHT31;48512;48.552;9.380;2023-07-29T14:10:13;28.60;54.85
62464;SHT31;48512;48.552;9.380;2023-07-29T14:12:39;28.56;53.45
62464;SHT31;48512;48.552;9.380;2023-07-29T14:15:05;28.25;55.31
62464;SHT31;48512;48.552;9.380;2023-07-29T14:17:32;28.52;55.11
62464;SHT31;48512;48.552;9.380;2023-07-29T14:19:58;28.84;53.99
62464;SHT31;48512;48.552;9.380;2023-07-29T14:22:24;28.38;56.11
62464;SHT31;48512;48.552;9.380;2023-07-29T14:24:50;28.68;54.99
62464;SHT31;48512;48.552;9.380;2023-07-29T14:27:16;28.90;53.95
62464;SHT31;48512;48.552;9.380;2023-07-29T14:29:43;28.66;54.37
62464;SHT31;48512;48.552;9.380;2023-07-29T14:32:09;28.64;53.43
62464;SHT31;48512;48.552;9.380;2023-07-29T14:34:35;29.21;52.54
62464;SHT31;48512;48.552;9.380;2023-07-29T14:37:01;29.56;51.29
62464;SHT31;48512;48.552;9.380;2023-07-29T14:39:27;29.03;53.28
62464;SHT31;48512;48.552;9.380;2023-07-29T14:41:53;28.87;54.16
62464;SHT31;48512;48.552;9.380;2023-07-29T14:44:19;28.94;52.66
62464;SHT31;48512;48.552;9.380;2023-07-29T14:46:45;28.55;53.07
62464;SHT31;48512;48.552;9.380;2023-07-29T14:49:11;28.32;53.66
62464;SHT31;48512;48.552;9.380;2023-07-29T14:51:38;28.08;54.56
62464;SHT31;48512;48.552;9.380;2023-07-29T14:54:04;27.81;55.08
62464;SHT31;48512;48.552;9.380;2023-07-29T14:56:31;28.31;53.98
62464;SHT31;48512;48.552;9.380;2023-07-29T14:58:57;28.38;53.63
62464;SHT31;48512;48.552;9.380;2023-07-29T15:01:23;28.45;52.64
62464;SHT31;48512;48.552;9.380;2023-07-29T15:03:49;28.38;53.13
62464;SHT31;48512;48.552;9.380;2023-07-29T15:06:15;28.13;54.25
62464;SHT31;48512;48.552;9.380;2023-07-29T15:08:41;28.28;53.47
62464;SHT31;48512;48.552;9.380;2023-07-29T15:11:07;28.29;53.26
62464;SHT31;48512;48.552;9.380;2023-07-29T15:13:33;28.40;51.98
62464;SHT31;48512;48.552;9.380;2023-07-29T15:15:59;28.11;52.96
62464;SHT31;48512;48.552;9.380;2023-07-29T15:18:25;28.00;52.96
62464;SHT31;48512;48.552;9.380;2023-07-29T15:20:58;27.84;53.25
62464;SHT31;48512;48.552;9.380;2023-07-29T15:23:25;27.81;53.35
62464;SHT31;48512;48.552;9.380;2023-07-29T15:25:52;27.60;54.36
62464;SHT31;48512;48.552;9.380;2023-07-29T15:28:18;27.54;54.31
62464;SHT31;48512;48.552;9.380;2023-07-29T15:30:44;27.61;54.39
62464;SHT31;48512;48.552;9.380;2023-07-29T15:33:10;27.73;54.24
62464;SHT31;48512;48.552;9.380;2023-07-29T15:35:38;27.90;53.21
62464;SHT31;48512;48.552;9.380;2023-07-29T15:38:08;27.55;54.86
62464;SHT31;48512;48.552;9.380;2023-07-29T15:40:34;27.64;55.52
62464;SHT31;48512;48.552;9.380;2023-07-29T15:43:00;27.88;53.69
62464;SHT31;48512;48.552;9.380;2023-07-29T15:45:26;27.92;53.88
62464;SHT31;48512;48.552;9.380;2023-07-29T15:47:53;28.09;54.05
62464;SHT31;48512;48.552;9.380;2023-07-29T15:50:19;27.90;54.86
62464;SHT31;48512;48.552;9.380;2023-07-29T15:52:45;28.01;54.39
62464;SHT31;48512;48.552;9.380;2023-07-29T15:55:11;28.01;54.78
62464;SHT31;48512;48.552;9.380;2023-07-29T15:57:37;28.04;54.59